Time;durP1;ratioP1;P1;durP2;ratioP2;P2;SDS_P1;SDS_P2;PMS_P1;PMS_P2;Temp;Humidity;BMP_temperature;BMP_pressure;BME280_temperature;BME280_humidity;BME280_pressure;Samples;Min_cycle;Max_cycle;Signal;HPM_P1;HPM_P2
2021/10/13 00:00:45;;;;;;;4.82;1.10;;;;;;;;;;5019186;28;20109;-56
2021/10/13 00:03:13;;;;;;;3.33;0.93;;;;;;;;;;5020701;28;20034;-57
2021/10/13 00:05:39;;;;;;;8.32;1.20;;;;;;;;;;5022054;28;20041;-53
2021/10/13 00:08:06;;;;;;;3.45;1.00;;;;;;;;;;5018364;28;20034;-58
2021/10/13 00:10:33;;;;;;;4.05;1.10;;;;;;;;;;5022319;28;20065;-55
2021/10/13 00:12:59;;;;;;;3.65;1.15;;;;;;;;;;5019418;28;20049;-57
2021/10/13 00:15:26;;;;;;;3.95;1.00;;;;;;;;;;5022233;28;20077;-55
2021/10/13 00:17:57;;;;;;;4.30;1.08;;;;;;;;;;5034163;28;20053;-59
2021/10/13 00:20:25;;;;;;;6.18;1.60;;;;;;;;;;5043091;28;20057;-59
2021/10/13 00:22:52;;;;;;;4.60;0.97;;;;;;;;;;5027842;28;20057;-59
2021/10/13 00:25:18;;;;;;;4.18;1.17;;;;;;;;;;5021710;28;20037;-62
2021/10/13 00:27:45;;;;;;;5.88;0.77;;;;;;;;;;5021471;28;20041;-61
2021/10/13 00:30:11;;;;;;;3.42;0.80;;;;;;;;;;5042325;28;20044;-61
2021/10/13 00:32:38;;;;;;;2.45;0.85;;;;;;;;;;5035904;28;20186;-62
2021/10/13 00:35:05;;;;;;;3.10;0.93;;;;;;;;;;5042058;28;20029;-62
2021/10/13 00:37:34;;;;;;;5.75;1.65;;;;;;;;;;5037024;28;20045;-62
2021/10/13 00:40:01;;;;;;;5.57;1.20;;;;;;;;;;5040359;28;20045;-52
2021/10/13 00:42:28;;;;;;;2.47;0.90;;;;;;;;;;5052296;28;20104;-55
2021/10/13 00:44:55;;;;;;;6.68;1.10;;;;;;;;;;5019950;28;20061;-57
2021/10/13 00:47:22;;;;;;;2.38;1.10;;;;;;;;;;5021730;28;20069;-58
2021/10/13 00:49:49;;;;;;;3.22;1.00;;;;;;;;;;5019195;28;20045;-53
2021/10/13 00:52:15;;;;;;;4.00;1.00;;;;;;;;;;5021216;28;20033;-56
2021/10/13 00:54:44;;;;;;;4.07;1.10;;;;;;;;;;5019951;28;20048;-53
2021/10/13 00:57:10;;;;;;;3.70;0.90;;;;;;;;;;5022692;28;20034;-59
2021/10/13 00:59:37;;;;;;;4.65;1.08;;;;;;;;;;5032263;28;20236;-56
2021/10/13 01:02:04;;;;;;;6.70;1.38;;;;;;;;;;5039716;28;20047;-59
2021/10/13 01:04:40;;;;;;;2.45;1.05;;;;;;;;;;5024402;28;20119;-56
2021/10/13 01:07:10;;;;;;;5.70;1.23;;;;;;;;;;5021652;28;20096;-55
2021/10/13 01:09:41;;;;;;;5.78;1.33;;;;;;;;;;5017547;28;20050;-58
2021/10/13 01:12:17;;;;;;;6.13;1.52;;;;;;;;;;5019677;28;20041;-57
2021/10/13 01:14:47;;;;;;;8.05;1.25;;;;;;;;;;5017734;28;20054;-55
2021/10/13 01:17:20;;;;;;;3.28;1.10;;;;;;;;;;5028720;28;20120;-52
2021/10/13 01:20:02;;;;;;;5.43;1.25;;;;;;;;;;5036441;28;20065;-57
2021/10/13 01:22:43;;;;;;;8.77;1.98;;;;;;;;;;5039894;28;20081;-56
2021/10/13 01:25:14;;;;;;;7.93;1.40;;;;;;;;;;5026410;28;20038;-52
2021/10/13 01:27:56;;;;;;;11.68;1.50;;;;;;;;;;5020424;28;20038;-54
2021/10/13 01:30:24;;;;;;;6.57;1.38;;;;;;;;;;5017702;28;20102;-53
2021/10/13 01:32:56;;;;;;;3.92;1.23;;;;;;;;;;5021162;28;20061;-53
2021/10/13 01:35:25;;;;;;;4.88;1.27;;;;;;;;;;5019314;28;20127;-55
2021/10/13 01:37:55;;;;;;;2.72;1.20;;;;;;;;;;5021834;28;20049;-60
2021/10/13 01:40:26;;;;;;;5.35;1.30;;;;;;;;;;5017409;28;20034;-51
2021/10/13 01:42:53;;;;;;;7.28;2.03;;;;;;;;;;5020531;28;20037;-58
2021/10/13 01:45:24;;;;;;;3.05;0.90;;;;;;;;;;5023815;28;20087;-54
2021/10/13 01:47:53;;;;;;;6.78;1.83;;;;;;;;;;5042788;28;20033;-61
2021/10/13 01:50:20;;;;;;;6.25;1.10;;;;;;;;;;5035416;28;20026;-54
2021/10/13 01:52:48;;;;;;;5.97;1.25;;;;;;;;;;5023636;28;20070;-50
2021/10/13 01:55:16;;;;;;;5.82;1.30;;;;;;;;;;5020100;28;20037;-55
2021/10/13 01:57:44;;;;;;;8.43;1.27;;;;;;;;;;5026579;28;20042;-57
2021/10/13 02:00:11;;;;;;;6.28;1.27;;;;;;;;;;5023265;28;20034;-57
2021/10/13 02:02:41;;;;;;;3.37;1.20;;;;;;;;;;5021649;28;20042;-55
2021/10/13 02:05:09;;;;;;;6.53;1.45;;;;;;;;;;5024578;28;20046;-59
2021/10/13 02:07:38;;;;;;;5.10;1.25;;;;;;;;;;5019303;28;20085;-53
2021/10/13 02:10:06;;;;;;;1.50;0.90;;;;;;;;;;5023367;28;20050;-55
2021/10/13 02:12:33;;;;;;;3.25;1.15;;;;;;;;;;5032087;28;20061;-51
2021/10/13 02:15:01;;;;;;;3.17;1.08;;;;;;;;;;5040149;28;20041;-53
2021/10/13 02:17:28;;;;;;;3.65;1.30;;;;;;;;;;5037559;28;20068;-57
2021/10/13 02:19:57;;;;;;;5.50;1.25;;;;;;;;;;5041381;28;20085;-51
2021/10/13 02:22:28;;;;;;;6.15;1.25;;;;;;;;;;5027223;28;20041;-55
2021/10/13 02:24:54;;;;;;;7.15;1.08;;;;;;;;;;5022433;28;20048;-56
2021/10/13 02:27:24;;;;;;;7.20;1.10;;;;;;;;;;5021068;28;20049;-56
2021/10/13 02:29:50;;;;;;;3.65;1.17;;;;;;;;;;5022793;28;20053;-59
2021/10/13 02:32:17;;;;;;;4.38;1.13;;;;;;;;;;5026571;28;20053;-58
2021/10/13 02:34:44;;;;;;;3.17;1.00;;;;;;;;;;5043640;28;20041;-56
2021/10/13 02:37:12;;;;;;;2.70;1.10;;;;;;;;;;5024051;28;20045;-62
2021/10/13 02:39:41;;;;;;;3.53;1.20;;;;;;;;;;5023958;28;20045;-55
2021/10/13 02:42:07;;;;;;;;;;;;;;;;;;5029995;28;20364;-56
2021/10/13 02:44:34;;;;;;;6.30;1.00;;;;;;;;;;5022701;28;19999;-54
2021/10/13 02:47:04;;;;;;;5.15;1.27;;;;;;;;;;5023862;28;20049;-57
2021/10/13 02:49:34;;;;;;;2.00;0.88;;;;;;;;;;5020387;28;20094;-51
2021/10/13 02:52:07;;;;;;;3.33;1.10;;;;;;;;;;5039227;28;20058;-54
2021/10/13 02:54:39;;;;;;;3.70;1.13;;;;;;;;;;5051691;28;20152;-58
2021/10/13 02:57:06;;;;;;;7.63;1.67;;;;;;;;;;5024149;28;20034;-59
2021/10/13 02:59:35;;;;;;;5.95;1.25;;;;;;;;;;5034440;28;20033;-58
2021/10/13 03:02:03;;;;;;;3.38;1.15;;;;;;;;;;5041820;28;20064;-60
2021/10/13 03:04:30;;;;;;;;;;;;;;;;;;5023952;28;20032;-62
2021/10/13 03:07:00;;;;;;;3.05;0.90;;;;;;;;;;5021275;28;19921;-55
2021/10/13 03:09:27;;;;;;;6.47;1.20;;;;;;;;;;5019453;28;20059;-51
2021/10/13 03:11:55;;;;;;;5.13;1.08;;;;;;;;;;5021851;28;20049;-56
2021/10/13 03:14:23;;;;;;;4.15;1.40;;;;;;;;;;5031243;28;20037;-59
2021/10/13 03:16:53;;;;;;;2.53;0.95;;;;;;;;;;5044469;28;20060;-59
2021/10/13 03:19:20;;;;;;;5.38;1.23;;;;;;;;;;5040035;28;20073;-63
2021/10/13 03:21:47;;;;;;;3.83;0.93;;;;;;;;;;5059703;28;20037;-59
2021/10/13 03:24:15;;;;;;;4.43;0.85;;;;;;;;;;5033075;28;20033;-60
2021/10/13 03:26:45;;;;;;;3.95;0.90;;;;;;;;;;5026243;28;20058;-56
2021/10/13 03:29:15;;;;;;;5.13;1.23;;;;;;;;;;5021291;28;20085;-55
2021/10/13 03:31:41;;;;;;;4.75;1.08;;;;;;;;;;5042221;28;20049;-60
2021/10/13 03:34:08;;;;;;;6.57;1.13;;;;;;;;;;5038971;28;20048;-55
2021/10/13 03:36:39;;;;;;;8.93;1.10;;;;;;;;;;5043880;28;20041;-50
2021/10/13 03:39:07;;;;;;;4.93;0.90;;;;;;;;;;5040033;28;20033;-54
2021/10/13 03:41:33;;;;;;;6.47;0.98;;;;;;;;;;5026887;28;20033;-52
2021/10/13 03:44:00;;;;;;;3.10;0.90;;;;;;;;;;5042627;28;20033;-58
2021/10/13 03:46:27;;;;;;;3.95;0.82;;;;;;;;;;5038850;28;20388;-59
2021/10/13 03:48:55;;;;;;;8.03;1.23;;;;;;;;;;5042649;28;20045;-60
2021/10/13 03:51:22;;;;;;;2.92;1.10;;;;;;;;;;5026865;28;20052;-58
2021/10/13 03:53:48;;;;;;;4.50;1.30;;;;;;;;;;5042301;28;20155;-62
2021/10/13 03:56:15;;;;;;;3.03;0.90;;;;;;;;;;5036179;28;20046;-60
2021/10/13 03:58:42;;;;;;;3.15;0.90;;;;;;;;;;5021427;28;20046;-60
2021/10/13 04:01:09;;;;;;;4.10;0.90;;;;;;;;;;5017603;28;20037;-56
2021/10/13 04:03:37;;;;;;;5.25;0.85;;;;;;;;;;5021190;28;20519;-60
2021/10/13 04:06:04;;;;;;;3.53;0.85;;;;;;;;;;5018896;28;20045;-62
2021/10/13 04:08:31;;;;;;;5.05;1.40;;;;;;;;;;5021486;28;20085;-61
2021/10/13 04:10:58;;;;;;;3.97;1.00;;;;;;;;;;5020125;28;20055;-61
2021/10/13 04:13:24;;;;;;;5.78;1.02;;;;;;;;;;5057366;28;20036;-62
2021/10/13 04:15:51;;;;;;;3.10;0.80;;;;;;;;;;5034328;28;20063;-63
2021/10/13 04:18:17;;;;;;;2.67;0.88;;;;;;;;;;5022211;28;20087;-63
2021/10/13 04:20:48;;;;;;;3.83;1.10;;;;;;;;;;5019433;28;20045;-59
2021/10/13 04:23:15;;;;;;;2.72;0.80;;;;;;;;;;5042244;28;20051;-61
2021/10/13 04:25:41;;;;;;;3.03;1.08;;;;;;;;;;5041098;28;20037;-63
2021/10/13 04:28:08;;;;;;;4.55;1.10;;;;;;;;;;5020601;28;20038;-60
2021/10/13 04:30:37;;;;;;;3.10;0.80;;;;;;;;;;5021578;28;20049;-62
2021/10/13 04:33:03;;;;;;;4.65;0.80;;;;;;;;;;5021179;28;20060;-57
2021/10/13 04:35:30;;;;;;;4.43;0.90;;;;;;;;;;5021708;28;20045;-54
2021/10/13 04:37:58;;;;;;;6.15;1.10;;;;;;;;;;5033442;28;20056;-60
2021/10/13 04:40:24;;;;;;;2.47;0.80;;;;;;;;;;5041717;28;20098;-58
2021/10/13 04:42:51;;;;;;;4.65;1.30;;;;;;;;;;5023402;28;20153;-60
2021/10/13 04:45:17;;;;;;;1.85;0.82;;;;;;;;;;5024727;28;20038;-61
2021/10/13 04:47:45;;;;;;;3.03;0.85;;;;;;;;;;5007228;28;20081;-56
2021/10/13 04:50:12;;;;;;;7.28;1.20;;;;;;;;;;5038828;28;20034;-59
2021/10/13 04:52:38;;;;;;;7.45;1.10;;;;;;;;;;5037184;28;20041;-61
2021/10/13 04:55:09;;;;;;;3.42;0.90;;;;;;;;;;5042452;28;20047;-62
2021/10/13 04:57:36;;;;;;;2.97;0.85;;;;;;;;;;5034302;28;20042;-59
2021/10/13 05:00:03;;;;;;;2.47;0.98;;;;;;;;;;5020086;28;20049;-58
2021/10/13 05:02:30;;;;;;;3.83;1.20;;;;;;;;;;5018860;28;20034;-57
2021/10/13 05:04:59;;;;;;;6.95;2.58;;;;;;;;;;5019467;28;20046;-58
2021/10/13 05:07:26;;;;;;;5.95;1.70;;;;;;;;;;5021478;28;20127;-55
2021/10/13 05:09:52;;;;;;;6.50;1.85;;;;;;;;;;5017505;28;20058;-51
2021/10/13 05:12:21;;;;;;;6.03;1.80;;;;;;;;;;5021119;28;20123;-58
2021/10/13 05:14:47;;;;;;;3.97;1.40;;;;;;;;;;5031054;28;20045;-54
2021/10/13 05:17:17;;;;;;;4.15;1.27;;;;;;;;;;5034594;28;20052;-57
2021/10/13 05:19:44;;;;;;;5.38;1.48;;;;;;;;;;5030134;28;20033;-56
2021/10/13 05:22:10;;;;;;;5.10;1.50;;;;;;;;;;5033086;28;20044;-50
2021/10/13 05:24:37;;;;;;;5.07;1.60;;;;;;;;;;5029882;28;20065;-53
2021/10/13 05:27:04;;;;;;;4.95;1.40;;;;;;;;;;5019682;28;20052;-55
2021/10/13 05:29:32;;;;;;;4.32;1.50;;;;;;;;;;5029243;28;20057;-55
2021/10/13 05:31:58;;;;;;;5.70;1.60;;;;;;;;;;5032504;28;20087;-56
2021/10/13 05:34:26;;;;;;;5.65;1.85;;;;;;;;;;5036820;28;20041;-58
2021/10/13 05:36:52;;;;;;;9.00;2.78;;;;;;;;;;5034938;28;20057;-56
2021/10/13 05:39:19;;;;;;;14.35;3.97;;;;;;;;;;5037332;28;20112;-54
2021/10/13 05:41:45;;;;;;;6.88;2.80;;;;;;;;;;5037157;28;20045;-53
2021/10/13 05:44:12;;;;;;;11.77;2.30;;;;;;;;;;5035050;28;20098;-55
2021/10/13 05:46:40;;;;;;;8.45;2.10;;;;;;;;;;5035376;28;20033;-58
2021/10/13 05:49:07;;;;;;;7.60;1.70;;;;;;;;;;5043086;28;20054;-56
2021/10/13 05:51:34;;;;;;;7.63;1.67;;;;;;;;;;5027740;28;20041;-54
2021/10/13 05:54:01;;;;;;;5.18;1.48;;;;;;;;;;5031976;28;20038;-55
2021/10/13 05:56:27;;;;;;;5.63;1.52;;;;;;;;;;5038327;28;20072;-59
2021/10/13 05:58:56;;;;;;;6.40;1.80;;;;;;;;;;5032583;28;20070;-57
2021/10/13 06:01:22;;;;;;;5.22;1.65;;;;;;;;;;5020616;28;20037;-58
2021/10/13 06:03:50;;;;;;;4.28;1.52;;;;;;;;;;5040207;28;20049;-56
2021/10/13 06:06:17;;;;;;;8.82;1.90;;;;;;;;;;5047494;28;20045;-58
2021/10/13 06:08:46;;;;;;;8.95;1.65;;;;;;;;;;5044564;28;20040;-55
2021/10/13 06:11:13;;;;;;;5.43;1.65;;;;;;;;;;5031754;28;20053;-55
2021/10/13 06:13:40;;;;;;;4.60;1.70;;;;;;;;;;5026267;28;20036;-59
2021/10/13 06:16:10;;;;;;;2.67;1.40;;;;;;;;;;5022619;28;20131;-55
2021/10/13 06:18:36;;;;;;;4.57;2.03;;;;;;;;;;5021994;28;20046;-57
2021/10/13 06:21:05;;;;;;;5.50;2.20;;;;;;;;;;5019925;28;20112;-55
2021/10/13 06:23:31;;;;;;;9.20;2.60;;;;;;;;;;5023195;28;20038;-56
2021/10/13 06:25:58;;;;;;;7.22;2.25;;;;;;;;;;5011091;28;20053;-53
2021/10/13 06:28:25;;;;;;;9.88;2.30;;;;;;;;;;5023977;28;20042;-54
2021/10/13 06:30:51;;;;;;;5.55;1.70;;;;;;;;;;5010692;28;20049;-55
2021/10/13 06:33:18;;;;;;;6.05;2.05;;;;;;;;;;5022006;28;20046;-56
2021/10/13 06:35:44;;;;;;;10.23;1.80;;;;;;;;;;5021898;28;20132;-51
2021/10/13 06:38:12;;;;;;;7.20;2.20;;;;;;;;;;5020636;28;20108;-56
2021/10/13 06:40:39;;;;;;;7.63;2.40;;;;;;;;;;5024092;28;20038;-55
2021/10/13 06:43:06;;;;;;;5.10;2.00;;;;;;;;;;5026537;28;20048;-57
2021/10/13 06:45:35;;;;;;;5.43;2.40;;;;;;;;;;5024738;28;20115;-61
2021/10/13 06:48:03;;;;;;;6.88;1.80;;;;;;;;;;5025089;28;20041;-58
2021/10/13 06:50:29;;;;;;;4.78;1.73;;;;;;;;;;5018186;28;20033;-55
2021/10/13 06:52:56;;;;;;;8.13;2.50;;;;;;;;;;5027845;28;20043;-56
2021/10/13 06:55:24;;;;;;;9.38;2.00;;;;;;;;;;5040756;28;20118;-59
2021/10/13 06:57:52;;;;;;;5.03;1.93;;;;;;;;;;5013138;28;20030;-57
2021/10/13 07:00:19;;;;;;;6.28;1.70;;;;;;;;;;5020922;28;20357;-61
2021/10/13 07:02:45;;;;;;;5.65;1.60;;;;;;;;;;5020437;28;20056;-61
2021/10/13 07:05:11;;;;;;;4.63;1.80;;;;;;;;;;5021976;28;20037;-59
2021/10/13 07:07:42;;;;;;;9.52;2.10;;;;;;;;;;5023135;28;20049;-57
2021/10/13 07:10:09;;;;;;;7.60;1.70;;;;;;;;;;5041814;28;22364;-59
2021/10/13 07:12:37;;;;;;;5.28;1.70;;;;;;;;;;5022649;28;20094;-61
2021/10/13 07:15:03;;;;;;;4.33;1.87;;;;;;;;;;5022649;28;20046;-56
2021/10/13 07:17:30;;;;;;;5.68;2.05;;;;;;;;;;5023429;28;20038;-57
2021/10/13 07:19:59;;;;;;;9.85;3.17;;;;;;;;;;5017658;28;20049;-55
2021/10/13 07:22:26;;;;;;;6.15;2.80;;;;;;;;;;5023367;28;20037;-53
2021/10/13 07:24:52;;;;;;;8.13;2.05;;;;;;;;;;5018519;28;20057;-55
2021/10/13 07:27:21;;;;;;;8.07;2.05;;;;;;;;;;5023053;28;20109;-58
2021/10/13 07:29:55;;;;;;;;;;;;;;;;;;5025520;28;20047;-56
2021/10/13 07:32:23;;;;;;;7.10;1.50;;;;;;;;;;5041556;28;19969;-57
2021/10/13 07:34:50;;;;;;;7.85;1.50;;;;;;;;;;5026282;28;20109;-59
2021/10/13 07:37:21;;;;;;;7.03;1.45;;;;;;;;;;5021369;28;20033;-61
2021/10/13 07:39:47;;;;;;;7.55;1.80;;;;;;;;;;5032553;28;20049;-63
2021/10/13 07:42:14;;;;;;;5.07;1.63;;;;;;;;;;5030662;28;20068;-61
2021/10/13 07:44:41;;;;;;;5.55;1.70;;;;;;;;;;5019203;28;20103;-56
2021/10/13 07:47:08;;;;;;;5.18;1.58;;;;;;;;;;5020928;28;20161;-56
2021/10/13 07:49:36;;;;;;;8.00;1.80;;;;;;;;;;5024119;28;20045;-56
2021/10/13 07:52:03;;;;;;;6.07;1.70;;;;;;;;;;5042148;28;20048;-56
2021/10/13 07:54:29;;;;;;;8.73;1.70;;;;;;;;;;5037113;28;20041;-56
2021/10/13 07:56:56;;;;;;;9.73;1.75;;;;;;;;;;5043497;28;20067;-52
2021/10/13 07:59:22;;;;;;;9.48;1.73;;;;;;;;;;5039103;28;20065;-54
2021/10/13 08:01:49;;;;;;;9.18;1.95;;;;;;;;;;5021693;28;20052;-57
2021/10/13 08:04:15;;;;;;;4.72;1.92;;;;;;;;;;5021237;28;20057;-56
2021/10/13 08:06:44;;;;;;;5.78;1.52;;;;;;;;;;5035979;28;20069;-57
2021/10/13 08:09:11;;;;;;;5.50;1.85;;;;;;;;;;5041771;28;20042;-58
2021/10/13 08:11:38;;;;;;;6.07;1.52;;;;;;;;;;5020570;28;20045;-54
2021/10/13 08:14:05;;;;;;;5.60;1.95;;;;;;;;;;5021282;28;20340;-57
2021/10/13 08:16:32;;;;;;;11.50;1.65;;;;;;;;;;5031493;28;20042;-57
2021/10/13 08:18:59;;;;;;;8.15;2.08;;;;;;;;;;5040104;28;20408;-52
2021/10/13 08:21:25;;;;;;;5.80;1.55;;;;;;;;;;5026878;28;20061;-54
2021/10/13 08:23:53;;;;;;;4.13;1.55;;;;;;;;;;5020968;28;20038;-56
2021/10/13 08:26:20;;;;;;;3.97;1.90;;;;;;;;;;5019423;28;20042;-55
2021/10/13 08:28:46;;;;;;;3.70;1.38;;;;;;;;;;5022210;28;20041;-60
2021/10/13 08:31:14;;;;;;;6.88;1.45;;;;;;;;;;5017709;28;20041;-56
2021/10/13 08:33:40;;;;;;;3.90;1.60;;;;;;;;;;5022029;28;20054;-58
2021/10/13 08:36:07;;;;;;;6.07;1.60;;;;;;;;;;5018663;28;20042;-59
2021/10/13 08:38:34;;;;;;;10.68;1.73;;;;;;;;;;5021747;28;20026;-54
2021/10/13 08:41:02;;;;;;;6.32;1.38;;;;;;;;;;5029168;28;20073;-53
2021/10/13 08:43:28;;;;;;;6.85;1.80;;;;;;;;;;5019918;28;20135;-57
2021/10/13 08:45:55;;;;;;;6.50;1.65;;;;;;;;;;5021680;28;20082;-57
2021/10/13 08:48:22;;;;;;;10.52;1.65;;;;;;;;;;5017833;28;20061;-59
2021/10/13 08:50:49;;;;;;;4.32;1.60;;;;;;;;;;5020392;28;20076;-59
2021/10/13 08:53:20;;;;;;;6.80;1.60;;;;;;;;;;5016168;28;20030;-57
2021/10/13 08:55:47;;;;;;;8.85;1.73;;;;;;;;;;5019809;28;20116;-60
2021/10/13 08:58:16;;;;;;;5.90;1.77;;;;;;;;;;5032863;28;20043;-55
2021/10/13 09:00:43;;;;;;;4.97;1.23;;;;;;;;;;5040550;28;20126;-57
2021/10/13 09:03:24;;;;;;;4.45;1.50;;;;;;;;;;5025640;28;20115;-58
2021/10/13 09:05:51;;;;;;;4.00;1.52;;;;;;;;;;5019495;28;20116;-57
2021/10/13 09:08:18;;;;;;;6.22;1.38;;;;;;;;;;5029367;28;20151;-62
2021/10/13 09:10:44;;;;;;;10.73;1.48;;;;;;;;;;5040390;28;20123;-61
2021/10/13 09:13:13;;;;;;;5.07;1.45;;;;;;;;;;5020120;28;20038;-52
2021/10/13 09:15:41;;;;;;;6.97;1.52;;;;;;;;;;5020067;28;20045;-52
2021/10/13 09:18:10;;;;;;;6.28;1.55;;;;;;;;;;5015978;28;20074;-51
2021/10/13 09:20:37;;;;;;;8.70;1.65;;;;;;;;;;5020952;28;20049;-56
2021/10/13 09:23:08;;;;;;;4.93;1.30;;;;;;;;;;5017128;28;20030;-56
2021/10/13 09:25:35;;;;;;;8.45;1.70;;;;;;;;;;5023592;28;20104;-57
2021/10/13 09:28:02;;;;;;;7.35;1.55;;;;;;;;;;5021794;28;20041;-53
2021/10/13 09:30:30;;;;;;;2.42;1.30;;;;;;;;;;5039094;28;20064;-60
2021/10/13 09:33:09;;;;;;;7.80;1.45;;;;;;;;;;5035886;28;20049;-58
2021/10/13 09:35:40;;;;;;;4.78;1.50;;;;;;;;;;5019445;28;20061;-58
2021/10/13 09:38:07;;;;;;;10.45;1.35;;;;;;;;;;5019527;28;20070;-56
2021/10/13 09:40:35;;;;;;;4.03;1.20;;;;;;;;;;5019603;28;20042;-56
2021/10/13 09:43:01;;;;;;;2.00;0.70;;;;;;;;;;5037547;28;20045;-55
2021/10/13 09:45:29;;;;;;;7.35;1.13;;;;;;;;;;5019173;28;20127;-57
2021/10/13 09:47:59;;;;;;;4.97;1.23;;;;;;;;;;5037263;28;20114;-57
2021/10/13 09:50:39;;;;;;;2.83;1.10;;;;;;;;;;5036754;28;20227;-56
2021/10/13 09:53:16;;;;;;;10.52;0.90;;;;;;;;;;5038515;28;20038;-60
2021/10/13 09:55:43;;;;;;;4.05;0.80;;;;;;;;;;5035207;28;20119;-62
2021/10/13 09:58:21;;;;;;;6.03;1.00;;;;;;;;;;5041027;28;20094;-57
2021/10/13 10:00:48;;;;;;;;;;;;;;;;;;5020372;28;20102;-58
2021/10/13 10:03:16;;;;;;;2.40;0.80;;;;;;;;;;5018859;28;19925;-56
2021/10/13 10:05:44;;;;;;;4.53;0.63;;;;;;;;;;5030061;28;20185;-58
2021/10/13 10:08:11;;;;;;;1.90;0.70;;;;;;;;;;5039217;28;20045;-59
2021/10/13 10:10:39;;;;;;;5.40;0.90;;;;;;;;;;5026142;28;20045;-61
2021/10/13 10:13:06;;;;;;;2.85;0.80;;;;;;;;;;5022943;28;20046;-59
2021/10/13 10:15:37;;;;;;;8.10;0.80;;;;;;;;;;5025497;28;20045;-62
2021/10/13 10:18:26;;;;;;;5.60;0.70;;;;;;;;;;5024926;28;20048;-60
2021/10/13 10:20:55;;;;;;;7.88;0.90;;;;;;;;;;5015988;28;20115;-60
2021/10/13 10:23:28;;;;;;;5.65;0.77;;;;;;;;;;5038459;28;20076;-63
2021/10/13 10:25:55;;;;;;;3.30;0.55;;;;;;;;;;5036782;28;20053;-59
2021/10/13 10:28:48;;;;;;;3.72;0.75;;;;;;;;;;5023529;28;20061;-62
2021/10/13 10:31:31;;;;;;;9.57;0.80;;;;;;;;;;4993461;28;20060;-61
2021/10/13 10:34:07;;;;;;;3.78;0.70;;;;;;;;;;5043117;28;20045;-59
2021/10/13 10:37:04;;;;;;;4.25;0.70;;;;;;;;;;5030410;28;20077;-55
2021/10/13 10:39:48;;;;;;;6.90;0.80;;;;;;;;;;5023872;28;20111;-60
2021/10/13 10:42:35;;;;;;;2.70;0.55;;;;;;;;;;5020856;28;20056;-62
2021/10/13 10:45:11;;;;;;;0.68;0.50;;;;;;;;;;5020369;28;20026;-61
2021/10/13 10:47:48;;;;;;;5.63;0.50;;;;;;;;;;5018183;28;20034;-60
2021/10/13 10:50:15;;;;;;;4.93;0.70;;;;;;;;;;5022818;28;20056;-61
2021/10/13 10:53:04;;;;;;;2.40;0.63;;;;;;;;;;5020174;28;20049;-58
2021/10/13 10:55:34;;;;;;;7.07;0.95;;;;;;;;;;5023586;28;20059;-58
2021/10/13 10:58:13;;;;;;;3.35;0.77;;;;;;;;;;5018771;28;20053;-62
2021/10/13 11:00:39;;;;;;;;;;;;;;;;;;5022366;28;20132;-63
2021/10/13 11:03:18;;;;;;;6.05;0.75;;;;;;;;;;5031222;28;19924;-58
2021/10/13 11:05:45;;;;;;;5.70;0.70;;;;;;;;;;5042150;28;20065;-57
2021/10/13 11:08:13;;;;;;;3.03;0.82;;;;;;;;;;5025205;28;20104;-61
2021/10/13 11:10:40;;;;;;;2.10;0.73;;;;;;;;;;5012762;28;20276;-51
2021/10/13 11:13:07;;;;;;;4.03;0.70;;;;;;;;;;5010636;28;20290;-55
2021/10/13 11:15:36;;;;;;;6.50;0.77;;;;;;;;;;5036935;28;20050;-58
2021/10/13 11:21:10;;;;;;;3.70;0.88;;;;;;;;;;5040215;27;20116;-56
2021/10/13 11:23:37;;;;;;;5.40;0.73;;;;;;;;;;5049283;28;20049;-56
2021/10/13 11:26:06;;;;;;;3.72;0.68;;;;;;;;;;5058435;28;20175;-53
2021/10/13 11:28:34;;;;;;;2.45;0.70;;;;;;;;;;5053725;28;20048;-57
2021/10/13 11:31:03;;;;;;;3.30;0.93;;;;;;;;;;5050679;28;20045;-58
2021/10/13 11:33:30;;;;;;;3.00;0.52;;;;;;;;;;5042372;28;20055;-61
2021/10/13 11:35:59;;;;;;;3.03;0.65;;;;;;;;;;5055396;28;20029;-58
2021/10/13 11:38:28;;;;;;;5.45;0.85;;;;;;;;;;5050215;28;20038;-58
2021/10/13 11:41:04;;;;;;;4.97;0.70;;;;;;;;;;5036552;28;20049;-63
2021/10/13 11:43:31;;;;;;;6.40;0.85;;;;;;;;;;5038557;28;20041;-59
2021/10/13 11:45:58;;;;;;;5.25;0.70;;;;;;;;;;5056809;28;20044;-61
2021/10/13 11:48:25;;;;;;;4.93;0.70;;;;;;;;;;5052524;28;20045;-60
2021/10/13 11:50:54;;;;;;;7.63;0.80;;;;;;;;;;5055907;28;20029;-62
2021/10/13 11:53:21;;;;;;;2.22;0.65;;;;;;;;;;5053722;28;20606;-63
2021/10/13 11:55:49;;;;;;;2.60;0.68;;;;;;;;;;5052122;28;20056;-61
2021/10/13 11:58:22;;;;;;;9.65;0.75;;;;;;;;;;5037123;28;20045;-61
2021/10/13 12:00:49;;;;;;;4.05;0.75;;;;;;;;;;5043326;28;20049;-63
2021/10/13 12:03:18;;;;;;;4.57;0.70;;;;;;;;;;5046373;28;20104;-61
2021/10/13 12:05:46;;;;;;;2.85;0.90;;;;;;;;;;5067916;28;20094;-64
2021/10/13 12:08:14;;;;;;;3.20;0.55;;;;;;;;;;5077608;28;20044;-60
2021/10/13 12:10:42;;;;;;;5.15;0.85;;;;;;;;;;5073242;28;20102;-64
2021/10/13 12:13:10;;;;;;;5.22;0.95;;;;;;;;;;5036578;28;20045;-59
2021/10/13 12:15:37;;;;;;;3.63;0.98;;;;;;;;;;5047658;28;20103;-60
2021/10/13 12:18:12;;;;;;;3.03;0.90;;;;;;;;;;5055012;28;20149;-60
2021/10/13 12:20:39;;;;;;;3.55;1.38;;;;;;;;;;5042352;28;20041;-58
2021/10/13 12:23:10;;;;;;;8.98;1.02;;;;;;;;;;5035363;28;20049;-62
2021/10/13 12:25:36;;;;;;;3.50;0.60;;;;;;;;;;5034099;28;20049;-60
2021/10/13 12:28:03;;;;;;;3.28;0.70;;;;;;;;;;5036052;28;20087;-62
2021/10/13 12:30:35;;;;;;;1.75;0.52;;;;;;;;;;5035752;28;20142;-61
2021/10/13 12:33:06;;;;;;;5.90;0.93;;;;;;;;;;5043041;28;20045;-64
2021/10/13 12:35:34;;;;;;;5.15;0.85;;;;;;;;;;5036647;28;20131;-61
2021/10/13 12:38:01;;;;;;;5.53;0.85;;;;;;;;;;5023170;28;20106;-58
2021/10/13 12:40:28;;;;;;;3.45;0.68;;;;;;;;;;5022029;28;20045;-62
2021/10/13 12:42:55;;;;;;;4.88;0.88;;;;;;;;;;5040168;28;20120;-60
2021/10/13 12:45:25;;;;;;;7.00;0.70;;;;;;;;;;5021603;28;20049;-58
2021/10/13 12:48:06;;;;;;;1.05;0.50;;;;;;;;;;5045455;28;20215;-60
2021/10/13 12:50:35;;;;;;;2.35;0.65;;;;;;;;;;5040825;28;20041;-59
2021/10/13 12:53:01;;;;;;;2.70;0.88;;;;;;;;;;5038317;28;20045;-57
2021/10/13 12:55:28;;;;;;;7.55;0.98;;;;;;;;;;5042663;28;20045;-57
2021/10/13 12:57:54;;;;;;;4.22;0.80;;;;;;;;;;5037303;28;20048;-58
2021/10/13 13:00:21;;;;;;;2.72;0.90;;;;;;;;;;5042687;28;20049;-56
2021/10/13 13:02:48;;;;;;;5.80;0.88;;;;;;;;;;5034236;28;20041;-60
2021/10/13 13:05:14;;;;;;;7.22;0.98;;;;;;;;;;5043429;28;20511;-64
2021/10/13 13:07:45;;;;;;;2.10;0.65;;;;;;;;;;5037295;28;20393;-61
2021/10/13 13:10:12;;;;;;;13.15;1.02;;;;;;;;;;5040860;28;20025;-60
2021/10/13 13:12:39;;;;;;;2.85;0.70;;;;;;;;;;5034238;28;20044;-59
2021/10/13 13:15:08;;;;;;;6.68;1.17;;;;;;;;;;5042664;28;20046;-60
2021/10/13 13:17:34;;;;;;;;;;;;;;;;;;5031922;28;20069;-60
2021/10/13 13:20:01;;;;;;;4.65;0.70;;;;;;;;;;5020622;28;19936;-60
2021/10/13 13:22:27;;;;;;;5.05;0.85;;;;;;;;;;5023448;28;20049;-57
2021/10/13 13:24:55;;;;;;;3.58;0.63;;;;;;;;;;5029261;28;20061;-58
2021/10/13 13:27:21;;;;;;;3.05;0.70;;;;;;;;;;5022639;28;21212;-60
2021/10/13 13:29:48;;;;;;;2.78;0.70;;;;;;;;;;5042671;28;20045;-63
2021/10/13 13:32:14;;;;;;;4.18;0.90;;;;;;;;;;5039259;28;20045;-63
2021/10/13 13:34:41;;;;;;;5.57;1.13;;;;;;;;;;5042006;28;20069;-64
2021/10/13 13:37:07;;;;;;;9.25;0.90;;;;;;;;;;5042568;28;20053;-61
2021/10/13 13:39:34;;;;;;;4.45;0.75;;;;;;;;;;5039756;28;20162;-59
2021/10/13 13:42:02;;;;;;;6.93;0.88;;;;;;;;;;5031005;28;20057;-61
2021/10/13 13:44:28;;;;;;;4.97;0.80;;;;;;;;;;5049195;28;20068;-62
2021/10/13 13:46:55;;;;;;;1.88;0.70;;;;;;;;;;5062671;28;20080;-62
2021/10/13 13:49:22;;;;;;;5.85;0.98;;;;;;;;;;5062541;28;20118;-60
2021/10/13 13:51:49;;;;;;;5.80;0.95;;;;;;;;;;5042973;28;20105;-60
2021/10/13 13:54:16;;;;;;;3.95;0.65;;;;;;;;;;5040086;28;20108;-58
2021/10/13 13:56:45;;;;;;;2.83;0.65;;;;;;;;;;5042069;28;20041;-58
2021/10/13 13:59:13;;;;;;;5.72;0.77;;;;;;;;;;5046190;28;20044;-62
2021/10/13 14:01:39;;;;;;;5.45;1.00;;;;;;;;;;5060981;28;20044;-56
2021/10/13 14:04:05;;;;;;;5.97;1.00;;;;;;;;;;5048152;28;20038;-60
2021/10/13 14:06:32;;;;;;;11.05;0.90;;;;;;;;;;5048108;28;20045;-59
2021/10/13 14:09:01;;;;;;;6.05;1.00;;;;;;;;;;5039534;28;20080;-56
2021/10/13 14:11:27;;;;;;;6.25;1.08;;;;;;;;;;5037402;28;20037;-59
2021/10/13 14:13:53;;;;;;;5.43;0.98;;;;;;;;;;5021577;28;20233;-59
2021/10/13 14:16:21;;;;;;;8.38;2.80;;;;;;;;;;5042494;28;20113;-59
2021/10/13 14:18:48;;;;;;;4.17;1.20;;;;;;;;;;5043606;28;20048;-58
2021/10/13 14:21:14;;;;;;;5.07;1.40;;;;;;;;;;5034136;28;20305;-58
2021/10/13 14:23:41;;;;;;;5.22;1.60;;;;;;;;;;5022060;28;20350;-59
2021/10/13 14:26:08;;;;;;;7.85;1.27;;;;;;;;;;5028428;28;20048;-61
2021/10/13 14:28:34;;;;;;;6.45;1.30;;;;;;;;;;5041979;28;20056;-58
2021/10/13 14:31:01;;;;;;;7.47;0.90;;;;;;;;;;5038448;28;20048;-55
2021/10/13 14:33:29;;;;;;;5.72;1.38;;;;;;;;;;5042004;28;20038;-57
2021/10/13 14:35:56;;;;;;;5.10;1.25;;;;;;;;;;5036260;28;20037;-57
2021/10/13 14:38:22;;;;;;;4.25;1.25;;;;;;;;;;5042174;28;20045;-58
2021/10/13 14:40:49;;;;;;;5.75;1.10;;;;;;;;;;5030556;28;20042;-58
2021/10/13 14:43:15;;;;;;;6.25;1.48;;;;;;;;;;5019795;28;20401;-55
2021/10/13 14:45:42;;;;;;;3.85;1.00;;;;;;;;;;5020943;28;20045;-58
2021/10/13 14:48:09;;;;;;;12.95;1.15;;;;;;;;;;5020801;28;20038;-57
2021/10/13 14:50:37;;;;;;;5.32;1.20;;;;;;;;;;5021223;28;22362;-58
2021/10/13 14:53:03;;;;;;;2.33;0.73;;;;;;;;;;5041079;28;20111;-55